createdAt,value
2018-07-27T00:00:09.110Z,4.70
2018-07-27T00:02:36.301Z,4.53
2018-07-27T00:05:03.734Z,4.83
2018-07-27T00:07:30.957Z,4.90
2018-07-27T00:09:58.150Z,4.93
2018-07-27T00:12:25.349Z,4.50
2018-07-27T00:14:52.538Z,4.60
2018-07-27T00:17:19.713Z,4.43
2018-07-27T00:19:46.921Z,4.57
2018-07-27T00:22:14.204Z,4.40
2018-07-27T00:24:41.385Z,4.53
2018-07-27T00:27:08.565Z,4.70
2018-07-27T00:29:35.750Z,4.60
2018-07-27T00:32:02.958Z,4.57
2018-07-27T00:34:30.150Z,4.60
2018-07-27T00:36:57.342Z,4.43
2018-07-27T00:39:24.517Z,5.03
2018-07-27T00:41:51.721Z,4.50
2018-07-27T00:44:18.890Z,4.70
2018-07-27T00:46:46.053Z,4.60
2018-07-27T00:49:13.225Z,4.60
2018-07-27T00:51:40.448Z,4.70
2018-07-27T00:54:07.621Z,4.60
2018-07-27T00:56:34.813Z,5.00
2018-07-27T00:59:02.006Z,5.00
2018-07-27T01:01:29.202Z,4.77
2018-07-27T01:03:56.381Z,5.13
2018-07-27T01:06:23.605Z,4.60
2018-07-27T01:08:50.801Z,4.30
2018-07-27T01:11:18.022Z,4.63
2018-07-27T01:13:45.201Z,4.10
2018-07-27T01:16:12.390Z,4.30
2018-07-27T01:18:39.561Z,4.53
2018-07-27T01:21:06.781Z,4.80
2018-07-27T01:23:33.961Z,4.73
2018-07-27T01:26:01.231Z,4.63
2018-07-27T01:28:28.422Z,4.70
2018-07-27T01:30:55.637Z,4.90
2018-07-27T01:33:22.803Z,4.43
2018-07-27T01:35:49.981Z,4.70
2018-07-27T01:38:17.257Z,4.70
2018-07-27T01:40:44.441Z,4.77
2018-07-27T01:43:11.609Z,4.60
2018-07-27T01:45:38.778Z,4.67
2018-07-27T01:48:06.005Z,4.90
2018-07-27T01:50:33.221Z,4.80
2018-07-27T01:53:00.393Z,4.83
2018-07-27T01:55:27.584Z,4.73
2018-07-27T01:57:54.811Z,4.63
2018-07-27T02:00:22.040Z,4.60
2018-07-27T02:02:49.213Z,4.67
2018-07-27T02:05:16.397Z,4.47
2018-07-27T02:07:43.562Z,4.73
2018-07-27T02:10:10.749Z,4.50
2018-07-27T02:12:38.169Z,4.90
2018-07-27T02:15:06.233Z,4.73
2018-07-27T02:17:33.401Z,4.30
2018-07-27T02:22:51.249Z,4.57
2018-07-27T02:25:18.893Z,4.77
2018-07-27T02:27:46.384Z,4.67
2018-07-27T02:30:14.308Z,4.40
2018-07-27T02:32:42.499Z,4.17
2018-07-27T02:35:09.676Z,4.47
2018-07-27T02:37:36.840Z,4.60
2018-07-27T02:40:04.252Z,4.37
2018-07-27T02:42:31.381Z,4.37
2018-07-27T02:44:58.594Z,4.60
2018-07-27T02:47:25.785Z,4.23
2018-07-27T02:49:52.973Z,4.60
2018-07-27T02:52:20.169Z,4.80
2018-07-27T02:54:47.345Z,4.70
2018-07-27T02:57:14.513Z,4.47
2018-07-27T02:59:41.703Z,4.73
2018-07-27T03:02:08.921Z,5.13
2018-07-27T03:04:36.089Z,4.60
2018-07-27T03:07:03.349Z,4.60
2018-07-27T03:09:30.496Z,4.70
2018-07-27T03:11:57.700Z,4.37
2018-07-27T03:14:24.972Z,4.40
2018-07-27T03:16:52.158Z,4.60
2018-07-27T03:19:19.312Z,4.37
2018-07-27T03:21:46.517Z,4.60
2018-07-27T03:24:13.729Z,4.87
2018-07-27T03:26:41.034Z,4.60
2018-07-27T03:29:08.237Z,4.97
2018-07-27T03:31:35.400Z,4.30
2018-07-27T03:34:02.583Z,5.17
2018-07-27T03:36:29.768Z,5.10
2018-07-27T03:38:56.934Z,5.40
2018-07-27T03:41:24.146Z,5.07
2018-07-27T03:43:52.096Z,4.90
2018-07-27T03:46:19.277Z,4.60
2018-07-27T03:48:46.447Z,5.10
2018-07-27T03:51:13.652Z,5.10
2018-07-27T03:53:40.824Z,4.37
2018-07-27T03:56:08.001Z,5.37
2018-07-27T03:58:35.197Z,4.77
2018-07-27T04:01:02.356Z,4.87
2018-07-27T04:03:29.551Z,4.97
2018-07-27T04:05:56.716Z,5.00
2018-07-27T04:08:23.901Z,5.10
2018-07-27T04:10:51.060Z,5.30
2018-07-27T04:13:18.521Z,5.20
2018-07-27T04:15:45.701Z,5.10
2018-07-27T04:18:12.880Z,5.33
2018-07-27T04:20:40.037Z,4.63
2018-07-27T04:23:07.243Z,5.63
2018-07-27T04:25:34.461Z,5.37
2018-07-27T04:28:01.744Z,5.03
2018-07-27T04:30:28.918Z,4.80
2018-07-27T04:32:56.154Z,4.87
2018-07-27T04:35:23.290Z,5.10
2018-07-27T04:37:50.628Z,4.40
2018-07-27T04:40:17.917Z,5.37
2018-07-27T04:42:45.113Z,5.23
2018-07-27T04:45:12.381Z,5.10
2018-07-27T04:47:39.546Z,5.37
2018-07-27T04:50:07.193Z,5.63
2018-07-27T04:52:34.374Z,5.00
2018-07-27T04:55:01.573Z,5.97
2018-07-27T04:57:28.756Z,6.27
2018-07-27T04:59:55.953Z,5.23
2018-07-27T05:02:23.117Z,5.30
2018-07-27T05:04:50.333Z,5.13
2018-07-27T05:07:17.543Z,5.00
2018-07-27T05:09:44.707Z,5.37
2018-07-27T05:12:11.973Z,4.70
2018-07-27T05:14:39.166Z,5.27
2018-07-27T05:17:06.329Z,5.10
2018-07-27T05:19:33.500Z,5.40
2018-07-27T05:22:00.665Z,4.80
2018-07-27T05:24:27.854Z,5.17
2018-07-27T05:26:55.084Z,5.30
2018-07-27T05:29:22.265Z,5.07
2018-07-27T05:31:49.436Z,4.90
2018-07-27T05:34:16.656Z,5.30
2018-07-27T05:36:43.869Z,6.43
2018-07-27T05:39:11.893Z,5.17
2018-07-27T05:41:39.067Z,5.70
2018-07-27T05:44:06.454Z,5.50
2018-07-27T05:46:33.652Z,5.00
2018-07-27T05:49:00.900Z,5.00
2018-07-27T05:51:28.120Z,5.07
2018-07-27T05:53:55.313Z,5.33
2018-07-27T05:56:22.550Z,4.90
2018-07-27T05:58:49.765Z,5.33
2018-07-27T06:01:17.058Z,4.80
2018-07-27T06:03:44.445Z,5.10
2018-07-27T06:06:11.731Z,4.67
2018-07-27T06:08:39.052Z,5.10
2018-07-27T06:11:06.654Z,5.30
2018-07-27T06:13:33.965Z,4.90
2018-07-27T06:16:01.243Z,5.10
2018-07-27T06:18:28.582Z,4.90
2018-07-27T06:20:55.883Z,5.00
2018-07-27T06:23:23.120Z,5.17
2018-07-27T06:25:50.321Z,5.40
2018-07-27T06:28:17.980Z,5.23
2018-07-27T06:30:45.102Z,5.50
2018-07-27T06:33:12.345Z,5.10
2018-07-27T06:35:39.568Z,5.50
2018-07-27T06:38:06.748Z,5.33
2018-07-27T06:40:33.997Z,5.60
2018-07-27T06:43:01.180Z,5.20
2018-07-27T06:45:28.389Z,5.90
2018-07-27T06:47:55.638Z,5.13
2018-07-27T06:50:22.821Z,5.40
2018-07-27T06:52:50.056Z,5.43
2018-07-27T06:55:17.252Z,5.40
2018-07-27T06:57:44.434Z,5.00
2018-07-27T07:00:11.641Z,5.20
2018-07-27T07:02:38.800Z,5.27
2018-07-27T07:05:06.004Z,5.30
2018-07-27T07:07:33.236Z,5.63
2018-07-27T07:10:00.397Z,5.70
2018-07-27T07:12:27.583Z,5.70
2018-07-27T07:14:54.741Z,5.63
2018-07-27T07:17:21.927Z,5.70
2018-07-27T07:19:49.905Z,5.70
2018-07-27T07:22:17.497Z,5.23
2018-07-27T07:24:45.357Z,5.20
2018-07-27T07:27:14.111Z,5.80
2018-07-27T07:29:42.362Z,5.63
2018-07-27T07:32:10.826Z,5.30
2018-07-27T07:34:38.817Z,5.57
2018-07-27T07:37:08.135Z,6.33
2018-07-27T07:39:36.244Z,5.40
2018-07-27T07:42:04.497Z,5.20
2018-07-27T07:44:32.883Z,5.60
2018-07-27T07:47:00.651Z,5.57
2018-07-27T07:49:29.042Z,5.07
2018-07-27T07:51:56.889Z,5.13
2018-07-27T07:54:24.615Z,5.33
2018-07-27T07:56:52.925Z,4.90
2018-07-27T07:59:20.333Z,5.33
2018-07-27T08:01:48.665Z,5.87
2018-07-27T08:04:15.928Z,5.23
2018-07-27T08:06:44.302Z,5.80
2018-07-27T08:09:11.477Z,5.50
2018-07-27T08:11:38.637Z,6.10
2018-07-27T08:14:06.968Z,5.10
2018-07-27T08:16:34.330Z,5.70
2018-07-27T08:19:01.549Z,5.87
2018-07-27T08:21:29.852Z,5.70
2018-07-27T08:23:57.748Z,6.10
2018-07-27T08:26:51.042Z,5.80
2018-07-27T08:29:20.165Z,6.17
2018-07-27T08:31:49.172Z,5.87
2018-07-27T08:34:17.653Z,6.00
2018-07-27T08:36:46.034Z,6.00
2018-07-27T08:39:15.868Z,6.50
2018-07-27T08:41:44.949Z,6.00
2018-07-27T08:44:14.361Z,5.87
2018-07-27T08:46:42.110Z,6.10
2018-07-27T08:49:10.335Z,6.10
2018-07-27T08:51:38.456Z,6.67
2018-07-27T08:54:06.230Z,6.43
2018-07-27T08:56:33.421Z,5.60
2018-07-27T08:59:01.475Z,6.53
2018-07-27T09:01:29.417Z,6.13
2018-07-27T09:03:57.086Z,6.27
2018-07-27T09:06:26.591Z,5.90
2018-07-27T09:08:53.924Z,6.10
2018-07-27T09:11:21.460Z,5.93
2018-07-27T09:13:49.157Z,6.73
2018-07-27T09:16:16.336Z,6.43
2018-07-27T09:18:43.521Z,6.23
2018-07-27T09:21:11.288Z,5.77
2018-07-27T09:23:39.594Z,6.20
2018-07-27T09:26:07.780Z,5.73
2018-07-27T09:28:34.971Z,5.80
2018-07-27T09:31:02.880Z,6.20
2018-07-27T09:33:31.342Z,6.00
2018-07-27T09:35:58.516Z,6.53
2018-07-27T09:38:25.694Z,5.70
2018-07-27T09:40:52.885Z,6.13
2018-07-27T09:43:20.077Z,6.00
2018-07-27T09:45:47.282Z,5.97
2018-07-27T09:48:14.580Z,6.40
2018-07-27T09:50:42.968Z,5.83
2018-07-27T09:53:10.346Z,6.20
2018-07-27T09:55:37.523Z,5.97
2018-07-27T09:58:04.908Z,6.27
2018-07-27T10:00:37.916Z,6.33
2018-07-27T10:03:05.223Z,5.50
2018-07-27T10:05:32.401Z,5.23
2018-07-27T10:07:59.594Z,5.43
2018-07-27T10:10:26.773Z,5.47
2018-07-27T10:12:53.977Z,5.37
2018-07-27T10:15:21.101Z,5.43
2018-07-27T10:17:48.575Z,5.60
2018-07-27T10:20:15.741Z,6.20
2018-07-27T10:22:43.035Z,5.20
2018-07-27T10:25:10.218Z,5.57
2018-07-27T10:27:37.395Z,6.07
2018-07-27T10:30:05.054Z,6.40
2018-07-27T10:32:32.234Z,5.57
2018-07-27T10:34:59.398Z,6.00
2018-07-27T10:37:26.581Z,5.30
2018-07-27T10:39:53.728Z,5.73
2018-07-27T10:42:20.899Z,5.20
2018-07-27T10:44:48.119Z,4.93
2018-07-27T10:47:15.257Z,5.10
2018-07-27T10:49:42.437Z,5.17
2018-07-27T10:52:09.744Z,4.83
2018-07-27T10:54:36.904Z,4.80
2018-07-27T10:57:04.280Z,4.77
2018-07-27T10:59:31.669Z,5.20
2018-07-27T11:01:58.937Z,5.80
2018-07-27T11:04:26.116Z,5.40
2018-07-27T11:06:53.272Z,5.20
2018-07-27T11:09:20.469Z,5.20
2018-07-27T11:11:47.644Z,5.40
2018-07-27T11:14:14.870Z,5.33
2018-07-27T11:16:42.073Z,5.17
2018-07-27T11:19:09.233Z,5.57
2018-07-27T11:21:36.449Z,5.33
2018-07-27T11:24:03.648Z,5.50
2018-07-27T11:26:30.819Z,5.90
2018-07-27T11:28:58.000Z,5.60
2018-07-27T11:31:25.441Z,5.43
2018-07-27T11:33:52.626Z,5.30
2018-07-27T11:36:19.820Z,5.10
2018-07-27T11:38:47.023Z,5.10
2018-07-27T11:41:14.235Z,4.93
2018-07-27T11:43:41.406Z,5.47
2018-07-27T11:46:08.592Z,5.30
2018-07-27T11:48:35.752Z,5.17
2018-07-27T11:51:02.944Z,5.87
2018-07-27T11:53:30.132Z,5.17
2018-07-27T11:55:57.308Z,5.27
2018-07-27T11:58:25.194Z,5.17
2018-07-27T12:00:52.384Z,4.80
2018-07-27T12:03:19.534Z,4.60
2018-07-27T12:05:46.737Z,4.70
2018-07-27T12:08:13.943Z,5.17
2018-07-27T12:10:41.264Z,4.63
2018-07-27T12:13:08.488Z,5.07
2018-07-27T12:15:35.662Z,5.50
2018-07-27T12:18:02.821Z,5.10
2018-07-27T12:20:30.123Z,5.10
2018-07-27T12:22:57.413Z,4.87
2018-07-27T12:25:24.587Z,4.83
2018-07-27T12:27:51.942Z,4.60
2018-07-27T12:30:19.114Z,4.40
2018-07-27T12:32:46.273Z,4.27
2018-07-27T12:35:13.463Z,5.00
2018-07-27T12:37:40.645Z,4.97
2018-07-27T12:40:07.824Z,4.47
2018-07-27T12:42:35.035Z,4.57
2018-07-27T12:45:02.272Z,4.13
2018-07-27T12:47:29.427Z,4.43
2018-07-27T12:49:56.633Z,4.33
2018-07-27T12:52:23.817Z,4.40
2018-07-27T12:54:50.976Z,4.53
2018-07-27T12:57:18.156Z,4.53
2018-07-27T12:59:45.328Z,4.83
2018-07-27T13:02:12.516Z,4.50
2018-07-27T13:04:39.715Z,4.80
2018-07-27T13:07:06.992Z,4.63
2018-07-27T13:09:34.146Z,4.60
2018-07-27T13:12:01.337Z,4.63
2018-07-27T13:14:28.510Z,4.47
2018-07-27T13:16:55.685Z,4.47
2018-07-27T13:19:22.870Z,4.87
2018-07-27T13:21:50.901Z,4.70
2018-07-27T13:24:18.078Z,4.53
2018-07-27T13:26:45.274Z,4.43
2018-07-27T13:29:12.573Z,4.33
2018-07-27T13:34:36.070Z,4.80
2018-07-27T13:37:03.615Z,4.40
2018-07-27T13:39:31.409Z,5.03
2018-07-27T13:41:59.876Z,4.47
2018-07-27T13:44:27.073Z,4.60
2018-07-27T13:46:54.521Z,4.97
2018-07-27T13:49:21.825Z,4.70
2018-07-27T13:51:49.029Z,4.20
2018-07-27T13:54:16.405Z,4.70
2018-07-27T13:56:44.261Z,4.67
2018-07-27T13:59:11.534Z,4.73
2018-07-27T14:01:38.780Z,4.63
2018-07-27T14:04:06.024Z,4.80
2018-07-27T14:06:33.683Z,4.53
2018-07-27T14:09:00.923Z,4.43
2018-07-27T14:11:28.184Z,4.50
2018-07-27T14:13:55.353Z,5.00
2018-07-27T14:16:22.611Z,5.10
2018-07-27T14:18:49.901Z,5.40
2018-07-27T14:21:17.085Z,4.80
2018-07-27T14:23:44.420Z,4.63
2018-07-27T14:26:11.623Z,4.97
2018-07-27T14:28:38.926Z,5.20
2018-07-27T14:31:06.225Z,4.80
2018-07-27T14:33:33.470Z,5.03
2018-07-27T14:36:00.640Z,4.87
2018-07-27T14:38:27.894Z,4.80
2018-07-27T14:40:55.116Z,5.20
2018-07-27T14:43:22.294Z,4.90
2018-07-27T14:45:49.513Z,5.00
2018-07-27T14:48:16.731Z,4.83
2018-07-27T14:50:43.920Z,4.87
2018-07-27T14:53:11.195Z,5.03
2018-07-27T14:55:38.407Z,4.80
2018-07-27T14:58:05.770Z,5.30
2018-07-27T15:00:33.037Z,5.13
2018-07-27T15:03:00.323Z,4.93
2018-07-27T15:05:27.785Z,5.27
2018-07-27T15:07:55.573Z,4.60
2018-07-27T15:10:22.748Z,15.17
2018-07-27T15:12:49.918Z,11.40
2018-07-27T15:15:17.189Z,6.93
2018-07-27T15:17:44.421Z,8.53
2018-07-27T15:20:11.865Z,7.80
2018-07-27T15:22:39.028Z,6.00
2018-07-27T15:25:06.297Z,6.17
2018-07-27T15:27:33.465Z,5.60
2018-07-27T15:30:00.665Z,4.90
2018-07-27T15:32:27.977Z,5.27
2018-07-27T15:34:55.377Z,4.90
2018-07-27T15:37:22.560Z,5.33
2018-07-27T15:39:49.820Z,5.10
2018-07-27T15:42:17.045Z,5.30
2018-07-27T15:44:44.268Z,4.73
2018-07-27T15:47:11.462Z,4.70
2018-07-27T15:49:38.645Z,5.40
2018-07-27T15:52:05.842Z,5.17
2018-07-27T15:54:33.013Z,4.90
2018-07-27T15:57:00.195Z,5.50
2018-07-27T15:59:27.368Z,8.07
2018-07-27T16:01:54.564Z,6.67
2018-07-27T16:04:21.796Z,5.40
2018-07-27T16:06:48.984Z,5.33
2018-07-27T16:09:16.207Z,5.87
2018-07-27T16:11:43.404Z,5.70
2018-07-27T16:14:10.653Z,6.23
2018-07-27T16:16:37.837Z,5.30
2018-07-27T16:19:05.127Z,5.40
2018-07-27T16:21:32.309Z,5.17
2018-07-27T16:23:59.521Z,5.50
2018-07-27T16:26:26.700Z,5.53
2018-07-27T16:28:53.925Z,5.37
2018-07-27T16:31:21.093Z,6.03
2018-07-27T16:33:48.294Z,5.70
2018-07-27T16:36:15.585Z,5.10
2018-07-27T16:38:42.758Z,5.60
2018-07-27T16:41:10.029Z,5.40
2018-07-27T16:43:37.213Z,5.67
2018-07-27T16:46:04.418Z,6.17
2018-07-27T16:48:31.625Z,8.03
2018-07-27T16:50:59.140Z,6.20
2018-07-27T16:53:26.377Z,6.10
2018-07-27T16:55:59.417Z,5.77
2018-07-27T16:58:26.593Z,7.30
2018-07-27T17:00:53.864Z,5.50
2018-07-27T17:03:21.046Z,5.73
2018-07-27T17:05:48.241Z,10.30
2018-07-27T17:08:15.412Z,8.10
2018-07-27T17:10:42.661Z,7.43
2018-07-27T17:13:09.854Z,6.27
2018-07-27T17:15:37.029Z,7.13
2018-07-27T17:18:04.325Z,7.47
2018-07-27T17:20:31.509Z,6.90
2018-07-27T17:22:58.723Z,7.60
2018-07-27T17:25:25.986Z,5.97
2018-07-27T17:27:53.153Z,6.93
2018-07-27T17:30:20.357Z,6.77
2018-07-27T17:32:47.574Z,6.80
2018-07-27T17:35:14.768Z,6.80
2018-07-27T17:37:41.961Z,6.07
2018-07-27T17:40:09.349Z,6.10
2018-07-27T17:42:36.578Z,5.97
2018-07-27T17:45:05.182Z,5.60
2018-07-27T17:47:32.421Z,6.00
2018-07-27T17:49:59.637Z,5.63
2018-07-27T17:52:26.855Z,5.80
2018-07-27T17:54:54.035Z,5.80
2018-07-27T17:57:21.213Z,6.30
2018-07-27T17:59:48.384Z,5.50
2018-07-27T18:02:15.549Z,5.83
2018-07-27T18:04:42.720Z,5.37
2018-07-27T18:07:10.457Z,5.77
2018-07-27T18:09:37.564Z,6.40
2018-07-27T18:12:05.154Z,5.67
2018-07-27T18:14:32.321Z,6.50
2018-07-27T18:16:59.505Z,6.10
2018-07-27T18:19:26.723Z,5.70
2018-07-27T18:21:53.887Z,5.60
2018-07-27T18:24:21.125Z,5.77
2018-07-27T18:26:48.301Z,5.40
2018-07-27T18:29:15.549Z,5.93
2018-07-27T18:31:42.718Z,5.27
2018-07-27T18:34:09.895Z,5.77
2018-07-27T18:36:37.271Z,5.23
2018-07-27T18:39:06.881Z,5.47
2018-07-27T18:41:34.049Z,5.50
2018-07-27T18:44:01.242Z,5.27
2018-07-27T18:46:28.414Z,5.57
2018-07-27T18:48:55.609Z,5.43
2018-07-27T18:51:22.948Z,5.80
2018-07-27T18:53:50.137Z,5.40
2018-07-27T18:56:17.308Z,5.70
2018-07-27T18:58:44.467Z,5.53
2018-07-27T19:01:11.701Z,5.80
2018-07-27T19:03:38.889Z,5.93
2018-07-27T19:06:06.190Z,5.80
2018-07-27T19:08:33.380Z,5.73
2018-07-27T19:11:00.536Z,5.83
2018-07-27T19:13:27.731Z,5.50
2018-07-27T19:15:55.013Z,5.33
2018-07-27T19:18:22.401Z,5.40
2018-07-27T19:20:49.769Z,5.53
2018-07-27T19:23:16.982Z,5.43
2018-07-27T19:25:44.141Z,5.30
2018-07-27T19:28:11.415Z,5.90
2018-07-27T19:30:38.621Z,5.47
2018-07-27T19:33:05.805Z,5.50
2018-07-27T19:35:33.010Z,5.40
2018-07-27T19:38:00.242Z,5.47
2018-07-27T19:40:27.439Z,5.37
2018-07-27T19:42:54.637Z,5.40
2018-07-27T19:45:21.823Z,5.93
2018-07-27T19:47:48.989Z,5.73
2018-07-27T19:50:16.225Z,5.87
2018-07-27T19:52:43.415Z,5.63
2018-07-27T19:55:10.660Z,5.53
2018-07-27T19:57:37.832Z,6.10
2018-07-27T20:00:05.884Z,6.17
2018-07-27T20:02:33.049Z,6.23
2018-07-27T20:05:00.232Z,6.10
2018-07-27T20:07:27.409Z,5.90
2018-07-27T20:09:54.608Z,6.17
2018-07-27T20:12:22.056Z,5.53
2018-07-27T20:14:49.227Z,5.60
2018-07-27T20:17:16.412Z,5.57
2018-07-27T20:19:43.572Z,5.87
2018-07-27T20:22:10.784Z,5.83
2018-07-27T20:24:37.940Z,5.93
2018-07-27T20:27:05.125Z,5.70
2018-07-27T20:29:32.297Z,5.67
2018-07-27T20:31:59.505Z,5.70
2018-07-27T20:34:26.673Z,6.10
2018-07-27T20:36:53.856Z,5.33
2018-07-27T20:39:21.047Z,5.50
2018-07-27T20:41:48.218Z,6.10
2018-07-27T20:44:15.448Z,5.77
2018-07-27T20:46:42.627Z,6.07
2018-07-27T20:49:09.807Z,6.37
2018-07-27T20:51:37.053Z,5.73
2018-07-27T20:54:04.516Z,6.07
2018-07-27T20:56:31.729Z,5.80
2018-07-27T20:58:58.885Z,5.70
2018-07-27T21:01:26.109Z,5.90
2018-07-27T21:03:53.347Z,5.90
2018-07-27T21:06:20.483Z,6.73
2018-07-27T21:08:47.632Z,6.40
2018-07-27T21:11:14.841Z,6.50
2018-07-27T21:13:42.006Z,6.60
2018-07-27T21:16:09.509Z,6.33
2018-07-27T21:18:36.761Z,5.90
2018-07-27T21:21:03.934Z,6.20
2018-07-27T21:23:31.121Z,5.77
2018-07-27T21:25:58.289Z,5.80
2018-07-27T21:28:25.439Z,5.73
2018-07-27T21:30:52.737Z,6.53
2018-07-27T21:33:19.912Z,5.70
2018-07-27T21:35:47.096Z,6.20
2018-07-27T21:38:14.257Z,6.30
2018-07-27T21:40:41.432Z,6.40
2018-07-27T21:43:08.596Z,5.93
2018-07-27T21:45:35.819Z,6.20
2018-07-27T21:48:02.978Z,6.23
2018-07-27T21:50:30.199Z,5.80
2018-07-27T21:55:31.884Z,6.33
2018-07-27T21:57:59.089Z,6.00
2018-07-27T22:00:26.313Z,6.67
2018-07-27T22:02:53.517Z,6.83
2018-07-27T22:05:20.667Z,7.80
2018-07-27T22:07:52.441Z,7.33
2018-07-27T22:10:19.646Z,6.70
2018-07-27T22:12:46.834Z,6.03
2018-07-27T22:15:19.758Z,6.10
2018-07-27T22:17:47.314Z,6.23
2018-07-27T22:20:14.509Z,6.40
2018-07-27T22:22:42.324Z,6.10
2018-07-27T22:25:09.488Z,6.20
2018-07-27T22:27:36.678Z,6.53
2018-07-27T22:30:05.872Z,6.60
2018-07-27T22:32:33.054Z,6.73
2018-07-27T22:35:00.217Z,6.40
2018-07-27T22:37:27.433Z,7.00
2018-07-27T22:39:54.592Z,7.03
2018-07-27T22:42:21.783Z,7.10
2018-07-27T22:44:48.960Z,6.90
2018-07-27T22:47:16.128Z,7.10
2018-07-27T22:49:43.300Z,6.83
2018-07-27T22:52:10.454Z,6.27
2018-07-27T22:54:37.652Z,6.70
2018-07-27T22:57:05.272Z,6.57
2018-07-27T22:59:32.645Z,6.67
2018-07-27T23:01:59.874Z,6.70
2018-07-27T23:04:27.037Z,6.63
2018-07-27T23:06:54.199Z,6.17
2018-07-27T23:09:21.417Z,6.07
2018-07-27T23:11:48.589Z,6.20
2018-07-27T23:14:15.779Z,6.17
2018-07-27T23:16:43.033Z,6.23
2018-07-27T23:19:10.233Z,6.43
2018-07-27T23:21:37.417Z,5.93
2018-07-27T23:24:04.832Z,5.83
2018-07-27T23:26:32.053Z,6.30
2018-07-27T23:28:59.213Z,5.87
2018-07-27T23:31:26.393Z,6.03
2018-07-27T23:33:53.606Z,6.77
2018-07-27T23:36:20.767Z,6.03
2018-07-27T23:38:47.944Z,6.17
2018-07-27T23:41:15.161Z,5.60
2018-07-27T23:43:42.441Z,6.20
2018-07-27T23:46:09.635Z,6.67
2018-07-27T23:48:36.806Z,6.50
2018-07-27T23:51:04.040Z,6.50
2018-07-27T23:53:31.229Z,5.90
2018-07-27T23:55:58.396Z,6.47
2018-07-27T23:58:25.588Z,6.40
